TLPL/UVF METAR and TAF weather

Enter ICAO airport designator
Station Type Date Time Source
TLPL METAR 2023/03/22 10:00 UTC NOAA

TLPL 221000Z 09017KT 9999 FEW024 25/19 Q1015 NOSIG


Station Type Date Time Source
TLPL Decoded METAR 2023/03/22 10:00 UTC NOAA

Hewanorra International Airport, Saint Lucia (TLPL) 13-45N 060-57W 10M
Mar 22, 2023 - 06:00 AM EDT / 2023.03.22 1000 UTC
Wind: from the E (090 degrees) at 20 MPH (17 KT):0
Visibility: greater than 7 mile(s):0
Sky conditions: mostly clear
Temperature: 77 F (25 C)
Dew Point: 66 F (19 C)
Relative Humidity: 69%
Pressure (altimeter): 29.97 in. Hg (1015 hPa)
ob: TLPL 221000Z 09017KT 9999 FEW024 25/19 Q1015 NOSIG
cycle: 10

Station Type Date Time Source
TLPL TAF 2023/03/22 06:54 UTC NOAA

TAF TLPL 220500Z 2206/2306 08019KT 9999 SCT022
TEMPO 2206/2215 SHRA BKN015

Example: see airport list